createdAt,value
2018-07-07T00:01:41.486Z,53.90
2018-07-07T00:04:09.827Z,54.40
2018-07-07T00:09:06.372Z,54.50
2018-07-07T00:11:34.748Z,54.50
2018-07-07T00:14:03.132Z,54.60
2018-07-07T00:16:31.604Z,54.70
2018-07-07T00:18:59.964Z,54.90
2018-07-07T00:21:28.358Z,55.00
2018-07-07T00:23:56.716Z,55.00
2018-07-07T00:26:25.172Z,55.10
2018-07-07T00:28:53.544Z,55.10
2018-07-07T00:31:21.917Z,55.10
2018-07-07T00:33:50.291Z,55.10
2018-07-07T00:36:18.712Z,55.20
2018-07-07T00:38:47.080Z,55.10
2018-07-07T00:41:15.474Z,55.10
2018-07-07T00:43:43.821Z,55.40
2018-07-07T00:46:12.196Z,55.30
2018-07-07T00:48:40.558Z,55.40
2018-07-07T00:53:37.040Z,55.40
2018-07-07T00:56:05.425Z,55.60
2018-07-07T00:58:33.807Z,55.60
2018-07-07T01:01:02.234Z,55.80
2018-07-07T01:03:30.576Z,56.00
2018-07-07T01:05:58.965Z,55.90
2018-07-07T01:08:27.302Z,56.00
2018-07-07T01:13:23.755Z,55.90
2018-07-07T01:15:52.097Z,56.00
2018-07-07T01:18:20.415Z,56.10
2018-07-07T01:20:48.768Z,56.20
2018-07-07T01:23:17.100Z,56.20
2018-07-07T01:25:45.523Z,56.20
2018-07-07T01:28:13.864Z,56.40
2018-07-07T01:30:42.218Z,56.50
2018-07-07T01:33:10.557Z,56.80
2018-07-07T01:35:38.996Z,56.80
2018-07-07T01:38:07.364Z,56.90
2018-07-07T01:40:35.720Z,57.00
2018-07-07T01:43:04.045Z,57.00
2018-07-07T01:45:32.398Z,57.30
2018-07-07T01:48:00.712Z,57.10
2018-07-07T01:50:29.092Z,57.20
2018-07-07T01:52:57.491Z,57.30
2018-07-07T01:55:25.829Z,57.90
2018-07-07T01:57:54.183Z,58.00
2018-07-07T02:00:22.570Z,58.20
2018-07-07T02:02:50.916Z,58.10
2018-07-07T02:07:47.360Z,58.50
2018-07-07T02:10:15.784Z,58.80
2018-07-07T02:12:44.159Z,58.80
2018-07-07T02:15:12.515Z,59.10
2018-07-07T02:17:40.921Z,59.40
2018-07-07T02:20:09.316Z,59.30
2018-07-07T02:22:37.664Z,59.90
2018-07-07T02:25:06.180Z,59.90
2018-07-07T02:27:34.523Z,60.10
2018-07-07T02:30:02.880Z,60.20
2018-07-07T02:32:31.294Z,60.20
2018-07-07T02:34:59.616Z,60.40
2018-07-07T02:37:28.044Z,60.40
2018-07-07T02:39:56.368Z,61.10
2018-07-07T02:42:24.710Z,61.80
2018-07-07T02:44:53.037Z,61.50
2018-07-07T02:47:21.389Z,61.60
2018-07-07T02:49:49.725Z,62.00
2018-07-07T02:54:46.160Z,62.20
2018-07-07T02:57:14.507Z,61.80
2018-07-07T02:59:42.847Z,62.30
2018-07-07T03:02:11.208Z,62.20
2018-07-07T03:04:39.564Z,63.20
2018-07-07T03:07:07.965Z,63.10
2018-07-07T03:12:04.468Z,64.10
2018-07-07T03:14:32.837Z,64.10
2018-07-07T03:17:01.216Z,64.30
2018-07-07T03:19:29.556Z,64.20
2018-07-07T03:24:26.005Z,64.30
2018-07-07T03:31:50.501Z,64.90
2018-07-07T03:34:18.852Z,65.10
2018-07-07T03:36:47.212Z,65.10
2018-07-07T03:39:15.539Z,65.30
2018-07-07T03:41:43.908Z,65.50
2018-07-07T03:44:12.251Z,65.30
2018-07-07T03:46:40.642Z,65.50
2018-07-07T03:49:08.980Z,65.50
2018-07-07T03:51:37.375Z,65.80
2018-07-07T03:56:33.870Z,65.80
2018-07-07T03:59:02.274Z,66.20
2018-07-07T04:01:30.604Z,66.30
2018-07-07T04:03:58.956Z,66.60
2018-07-07T04:08:55.435Z,66.90
2018-07-07T04:11:23.765Z,66.70
2018-07-07T04:13:52.435Z,66.80
2018-07-07T04:16:20.756Z,66.70
2018-07-07T04:21:17.192Z,66.90
2018-07-07T04:23:45.548Z,67.20
2018-07-07T04:26:13.892Z,67.20
2018-07-07T04:28:42.264Z,67.50
2018-07-07T04:31:10.600Z,67.80
2018-07-07T04:33:38.964Z,68.00
2018-07-07T04:36:07.315Z,68.20
2018-07-07T04:38:35.672Z,68.40
2018-07-07T04:43:32.115Z,68.30
2018-07-07T04:50:56.633Z,68.60
2018-07-07T04:53:25.072Z,68.50
2018-07-07T04:55:53.408Z,68.70
2018-07-07T05:00:49.839Z,69.10
2018-07-07T05:03:18.192Z,69.00
2018-07-07T05:05:46.558Z,69.50
2018-07-07T05:08:14.924Z,69.40
2018-07-07T05:10:43.247Z,69.70
2018-07-07T05:13:11.612Z,69.70
2018-07-07T05:18:08.048Z,70.20
2018-07-07T05:20:36.375Z,70.10
2018-07-07T05:23:04.755Z,69.80
2018-07-07T05:25:33.088Z,69.80
2018-07-07T05:28:01.455Z,69.60
2018-07-07T05:30:29.779Z,70.00
2018-07-07T05:32:58.191Z,69.90
2018-07-07T05:37:54.614Z,69.80
2018-07-07T05:40:23.315Z,69.50
2018-07-07T05:42:51.666Z,69.50
2018-07-07T05:45:20.011Z,69.60
2018-07-07T05:47:48.348Z,69.30
2018-07-07T05:50:16.814Z,68.90
2018-07-07T05:52:45.163Z,69.10
2018-07-07T05:55:13.515Z,68.90
2018-07-07T05:57:41.865Z,69.00
2018-07-07T06:00:10.235Z,68.90
2018-07-07T06:02:38.602Z,68.70
2018-07-07T06:05:06.970Z,68.50
2018-07-07T06:07:35.368Z,68.50
2018-07-07T06:10:03.751Z,68.30
2018-07-07T06:12:32.079Z,68.10
2018-07-07T06:15:00.423Z,67.90
2018-07-07T06:17:28.804Z,67.90
2018-07-07T06:19:57.153Z,67.50
2018-07-07T06:22:25.478Z,67.30
2018-07-07T06:24:53.820Z,67.30
2018-07-07T06:27:22.160Z,67.20
2018-07-07T06:29:50.494Z,66.80
2018-07-07T06:32:18.812Z,66.40
2018-07-07T06:34:47.235Z,66.10
2018-07-07T06:37:16.798Z,66.10
2018-07-07T06:42:13.580Z,65.40
2018-07-07T06:44:41.992Z,65.50
2018-07-07T06:47:10.367Z,65.20
2018-07-07T06:49:38.809Z,64.90
2018-07-07T06:52:07.268Z,64.70
2018-07-07T06:59:32.061Z,64.30
2018-07-07T07:02:00.473Z,64.30
2018-07-07T07:04:28.887Z,63.90
2018-07-07T07:06:57.304Z,63.70
2018-07-07T07:09:25.687Z,63.50
2018-07-07T07:11:54.112Z,63.50
2018-07-07T07:14:22.508Z,63.10
2018-07-07T07:16:50.858Z,63.70
2018-07-07T07:21:47.449Z,62.80
2018-07-07T07:24:16.017Z,62.60
2018-07-07T07:26:44.429Z,62.40
2018-07-07T07:29:12.851Z,61.70
2018-07-07T07:34:09.439Z,61.00
2018-07-07T07:36:44.696Z,60.60
2018-07-07T07:39:13.128Z,60.20
2018-07-07T07:44:09.773Z,60.60
2018-07-07T07:46:38.175Z,60.10
2018-07-07T07:49:07.181Z,59.50
2018-07-07T07:51:35.613Z,59.10
2018-07-07T07:54:04.048Z,59.30
2018-07-07T07:56:32.488Z,58.60
2018-07-07T07:59:00.882Z,58.10
2018-07-07T08:01:29.283Z,57.90
2018-07-07T08:03:58.060Z,58.50
2018-07-07T08:08:54.557Z,57.40
2018-07-07T08:11:22.946Z,57.10
2018-07-07T08:13:51.392Z,56.80
2018-07-07T08:16:19.752Z,57.10
2018-07-07T08:23:44.280Z,56.40
2018-07-07T08:28:40.730Z,56.10
2018-07-07T08:33:37.254Z,55.40
2018-07-07T08:36:05.657Z,55.50
2018-07-07T08:43:30.200Z,54.00
2018-07-07T08:45:58.566Z,53.70
2018-07-07T08:48:26.919Z,53.40
2018-07-07T08:50:55.301Z,53.40
2018-07-07T08:53:23.704Z,53.40
2018-07-07T08:58:20.115Z,53.80
2018-07-07T09:00:48.551Z,53.90
2018-07-07T09:03:16.887Z,53.70
2018-07-07T09:05:45.259Z,53.50
2018-07-07T09:08:13.595Z,52.90
2018-07-07T09:10:41.926Z,52.80
2018-07-07T09:20:34.600Z,51.80
2018-07-07T09:23:03.010Z,51.80
2018-07-07T09:25:31.339Z,51.20
2018-07-07T09:27:59.687Z,50.90
2018-07-07T09:30:28.022Z,50.60
2018-07-07T09:32:56.387Z,50.40
2018-07-07T09:35:24.810Z,49.70
2018-07-07T09:37:53.272Z,49.20
2018-07-07T09:40:21.685Z,49.10
2018-07-07T09:45:18.131Z,48.30
2018-07-07T09:47:46.491Z,48.10
2018-07-07T09:50:14.828Z,48.20
2018-07-07T09:52:43.209Z,48.20
2018-07-07T09:55:11.555Z,48.20
2018-07-07T09:57:39.903Z,47.60
2018-07-07T10:00:14.484Z,47.70
2018-07-07T10:02:42.853Z,47.80
2018-07-07T10:05:11.188Z,47.70
2018-07-07T10:07:39.606Z,47.60
2018-07-07T10:10:07.973Z,47.00
2018-07-07T10:15:04.464Z,46.90
2018-07-07T10:17:32.898Z,46.90
2018-07-07T10:20:04.512Z,47.30
2018-07-07T10:22:32.897Z,47.10
2018-07-07T10:25:01.252Z,46.50
2018-07-07T10:27:29.607Z,46.00
2018-07-07T10:32:26.108Z,45.80
2018-07-07T10:34:54.445Z,45.40
2018-07-07T10:37:22.800Z,45.10
2018-07-07T10:39:51.168Z,44.70
2018-07-07T10:42:19.536Z,45.40
2018-07-07T10:44:47.861Z,44.50
2018-07-07T10:49:44.320Z,44.10
2018-07-07T10:52:12.740Z,43.30
2018-07-07T10:54:41.669Z,43.40
2018-07-07T10:57:10.028Z,43.80
2018-07-07T10:59:39.212Z,44.90
2018-07-07T11:02:07.592Z,44.50
2018-07-07T11:04:35.942Z,44.30
2018-07-07T11:07:04.616Z,43.70
2018-07-07T11:09:32.988Z,43.00
2018-07-07T11:14:29.471Z,42.70
2018-07-07T11:16:57.808Z,42.40
2018-07-07T11:19:26.188Z,42.50
2018-07-07T11:21:54.537Z,42.10
2018-07-07T11:24:22.892Z,42.10
2018-07-07T11:26:51.264Z,42.20
2018-07-07T11:29:19.632Z,41.90
2018-07-07T11:31:47.971Z,41.50
2018-07-07T11:34:16.323Z,41.50
2018-07-07T11:36:44.914Z,41.60
2018-07-07T11:39:13.035Z,41.00
2018-07-07T11:41:41.394Z,40.40
2018-07-07T11:44:09.822Z,39.90
2018-07-07T11:46:38.160Z,39.40
2018-07-07T11:56:30.780Z,39.20
2018-07-07T11:58:59.192Z,38.80
2018-07-07T12:01:27.527Z,38.30
2018-07-07T12:06:24.007Z,37.40
2018-07-07T12:08:52.385Z,38.10
2018-07-07T12:11:20.792Z,38.50
2018-07-07T12:13:49.121Z,38.10
2018-07-07T12:16:17.463Z,37.70
2018-07-07T12:18:45.825Z,37.20
2018-07-07T12:21:14.159Z,36.50
2018-07-07T12:26:10.644Z,36.30
2018-07-07T12:28:39.107Z,36.30
2018-07-07T12:31:07.484Z,36.40
2018-07-07T12:33:35.875Z,36.10
2018-07-07T12:36:04.258Z,36.20
2018-07-07T12:38:32.600Z,35.80
2018-07-07T12:43:29.112Z,35.20
2018-07-07T12:45:57.506Z,35.00
2018-07-07T12:48:25.792Z,34.90
2018-07-07T12:50:54.189Z,34.80
2018-07-07T12:53:22.565Z,34.80
2018-07-07T12:55:50.989Z,34.30
2018-07-07T12:58:19.319Z,34.70
2018-07-07T13:00:47.672Z,33.60
2018-07-07T13:03:16.008Z,33.40
2018-07-07T13:05:44.363Z,33.10
2018-07-07T13:08:12.726Z,33.10
2018-07-07T13:10:41.136Z,32.50
2018-07-07T13:18:06.303Z,32.70
2018-07-07T13:20:34.669Z,32.50
2018-07-07T13:23:03.078Z,32.40
2018-07-07T13:25:31.435Z,32.60
2018-07-07T13:27:59.787Z,32.50
2018-07-07T13:32:56.875Z,32.10
2018-07-07T13:35:25.223Z,31.60
2018-07-07T13:37:53.549Z,31.40
2018-07-07T13:40:21.880Z,31.30
2018-07-07T13:42:50.264Z,31.30
2018-07-07T13:45:18.599Z,31.20
2018-07-07T13:47:46.972Z,30.80
2018-07-07T13:50:15.317Z,31.10
2018-07-07T13:55:11.780Z,30.60
2018-07-07T13:57:40.131Z,30.60
2018-07-07T14:00:08.479Z,30.50
2018-07-07T14:02:36.847Z,30.30
2018-07-07T14:05:05.988Z,30.30
2018-07-07T14:07:34.359Z,30.00
2018-07-07T14:10:02.732Z,29.70
2018-07-07T14:12:31.091Z,29.50
2018-07-07T14:14:59.452Z,29.60
2018-07-07T14:17:27.809Z,30.00
2018-07-07T14:19:56.153Z,29.80
2018-07-07T14:22:24.607Z,29.90
2018-07-07T14:24:52.927Z,29.70
2018-07-07T14:27:21.398Z,29.20
2018-07-07T14:29:49.740Z,29.20
2018-07-07T14:32:18.100Z,28.80
2018-07-07T14:34:46.476Z,28.90
2018-07-07T14:37:14.807Z,28.90
2018-07-07T14:39:59.063Z,29.00
2018-07-07T14:42:40.156Z,29.10
2018-07-07T14:45:12.799Z,28.60
2018-07-07T14:47:41.128Z,28.70
2018-07-07T14:50:09.480Z,28.70
2018-07-07T14:52:37.834Z,28.60
2018-07-07T14:55:06.488Z,28.70
2018-07-07T14:57:35.058Z,28.50
2018-07-07T15:02:31.723Z,28.30
2018-07-07T15:05:00.105Z,28.40
2018-07-07T15:07:28.434Z,28.40
2018-07-07T15:09:57.092Z,28.10
2018-07-07T15:12:25.436Z,27.90
2018-07-07T15:29:42.210Z,27.20
2018-07-07T15:32:10.548Z,27.20
2018-07-07T15:34:38.889Z,27.10
2018-07-07T15:37:07.240Z,27.20
2018-07-07T15:39:35.572Z,26.80
2018-07-07T15:44:32.044Z,27.00
2018-07-07T15:47:00.392Z,26.60
2018-07-07T15:49:28.736Z,26.40
2018-07-07T15:51:57.084Z,26.20
2018-07-07T15:54:25.445Z,26.20
2018-07-07T15:56:53.823Z,26.00
2018-07-07T16:01:50.227Z,26.20
2018-07-07T16:04:18.543Z,26.20
2018-07-07T16:06:46.928Z,26.00
2018-07-07T16:11:43.486Z,26.60
2018-07-07T16:14:11.820Z,26.90
2018-07-07T16:16:40.185Z,26.30
2018-07-07T16:19:08.537Z,26.70
2018-07-07T16:21:36.941Z,26.70
2018-07-07T16:24:05.352Z,26.50
2018-07-07T16:26:33.715Z,26.70
2018-07-07T16:29:02.067Z,27.00
2018-07-07T16:31:30.419Z,27.00
2018-07-07T16:33:58.762Z,26.70
2018-07-07T16:36:27.112Z,26.60
2018-07-07T16:38:55.464Z,26.20
2018-07-07T16:41:23.856Z,26.10
2018-07-07T16:43:52.844Z,26.10
2018-07-07T16:46:21.528Z,26.30
2018-07-07T16:48:49.894Z,26.80
2018-07-07T16:56:16.107Z,27.00
2018-07-07T16:58:44.494Z,27.00
2018-07-07T17:01:12.897Z,27.10
2018-07-07T17:03:41.244Z,27.30
2018-07-07T17:06:09.649Z,27.40
2018-07-07T17:08:38.016Z,27.40
2018-07-07T17:11:07.633Z,27.40
2018-07-07T17:13:36.027Z,27.20
2018-07-07T17:16:04.449Z,27.20
2018-07-07T17:18:33.203Z,27.20
2018-07-07T17:21:01.532Z,27.10
2018-07-07T17:23:29.880Z,26.60
2018-07-07T17:28:26.303Z,26.70
2018-07-07T17:30:54.654Z,26.50
2018-07-07T17:33:23.020Z,26.50
2018-07-07T17:35:51.375Z,26.40
2018-07-07T17:38:19.771Z,26.60
2018-07-07T17:40:48.128Z,26.60
2018-07-07T17:45:44.590Z,26.70
2018-07-07T17:50:41.024Z,26.70
2018-07-07T17:53:09.434Z,27.00
2018-07-07T17:55:37.799Z,27.40
2018-07-07T18:00:34.244Z,27.70
2018-07-07T18:03:03.307Z,27.70
2018-07-07T18:05:31.631Z,27.70
2018-07-07T18:08:00.008Z,27.90
2018-07-07T18:10:28.355Z,28.30
2018-07-07T18:12:56.751Z,28.70
2018-07-07T18:15:25.127Z,29.20
2018-07-07T18:17:53.520Z,29.50
2018-07-07T18:22:49.964Z,30.10
2018-07-07T18:27:46.476Z,31.30
2018-07-07T18:30:14.849Z,31.90
2018-07-07T18:32:43.220Z,32.60
2018-07-07T18:35:11.647Z,33.30
2018-07-07T18:37:40.136Z,34.10
2018-07-07T18:40:08.556Z,34.80
2018-07-07T18:42:36.923Z,35.40
2018-07-07T18:45:05.357Z,35.90
2018-07-07T18:47:33.803Z,36.30
2018-07-07T18:50:02.144Z,36.80
2018-07-07T18:52:31.065Z,37.10
2018-07-07T18:54:59.483Z,37.50
2018-07-07T18:57:28.006Z,37.60
2018-07-07T19:02:24.479Z,38.20
2018-07-07T19:04:52.895Z,38.20
2018-07-07T19:07:21.282Z,38.30
2018-07-07T19:09:49.959Z,38.50
2018-07-07T19:12:18.304Z,38.90
2018-07-07T19:14:46.707Z,39.20
2018-07-07T19:17:15.120Z,39.40
2018-07-07T19:19:43.777Z,39.90
2018-07-07T19:22:17.497Z,40.30
2018-07-07T19:24:51.352Z,40.70
2018-07-07T19:32:21.174Z,41.60
2018-07-07T19:34:55.036Z,41.80
2018-07-07T19:37:23.471Z,42.20
2018-07-07T19:39:51.842Z,42.60
2018-07-07T19:44:48.323Z,43.20
2018-07-07T19:52:12.919Z,43.60
2018-07-07T19:54:41.285Z,43.80
2018-07-07T19:57:09.630Z,44.10
2018-07-07T19:59:38.007Z,44.30
2018-07-07T20:02:06.379Z,44.50
2018-07-07T20:04:34.734Z,44.70
2018-07-07T20:07:03.091Z,45.00
2018-07-07T20:11:59.514Z,45.20
2018-07-07T20:14:27.888Z,45.30
2018-07-07T20:17:06.530Z,45.40
2018-07-07T20:19:51.581Z,45.60
2018-07-07T20:22:19.911Z,46.00
2018-07-07T20:24:48.327Z,46.20
2018-07-07T20:27:22.008Z,46.40
2018-07-07T20:29:50.374Z,46.50
2018-07-07T20:32:24.034Z,46.70
2018-07-07T20:34:52.400Z,46.80
2018-07-07T20:37:20.740Z,46.90
2018-07-07T20:39:49.071Z,47.00
2018-07-07T20:42:18.533Z,47.20
2018-07-07T20:44:46.889Z,47.50
2018-07-07T20:47:15.250Z,47.70
2018-07-07T20:49:43.613Z,48.00
2018-07-07T20:52:12.013Z,48.50
2018-07-07T20:54:40.383Z,48.90
2018-07-07T20:57:08.786Z,49.30
2018-07-07T20:59:37.151Z,49.50
2018-07-07T21:02:05.840Z,49.60
2018-07-07T21:04:34.217Z,49.80
2018-07-07T21:07:02.618Z,49.90
2018-07-07T21:09:30.969Z,50.50
2018-07-07T21:11:59.371Z,50.00
2018-07-07T21:14:29.328Z,50.10
2018-07-07T21:16:57.928Z,50.40
2018-07-07T21:19:26.287Z,50.70
2018-07-07T21:21:54.856Z,50.90
2018-07-07T21:26:51.300Z,51.40
2018-07-07T21:29:19.725Z,51.10
2018-07-07T21:31:48.075Z,51.10
2018-07-07T21:36:44.511Z,51.40
2018-07-07T21:39:12.899Z,51.50
2018-07-07T21:41:41.295Z,51.70
2018-07-07T21:46:37.764Z,52.40
2018-07-07T21:49:06.124Z,52.50
2018-07-07T21:51:34.499Z,52.70
2018-07-07T21:56:30.992Z,53.10
2018-07-07T21:59:05.164Z,53.30
2018-07-07T22:02:10.768Z,53.40
2018-07-07T22:04:44.529Z,53.70
2018-07-07T22:07:18.316Z,53.90
2018-07-07T22:09:46.664Z,54.20
2018-07-07T22:12:15.090Z,54.30
2018-07-07T22:14:43.427Z,54.50
2018-07-07T22:17:11.865Z,54.50
2018-07-07T22:19:40.219Z,54.80
2018-07-07T22:22:11.199Z,54.90
2018-07-07T22:24:40.574Z,55.00
2018-07-07T22:29:39.504Z,55.30
2018-07-07T22:32:13.228Z,55.50
2018-07-07T22:34:41.709Z,55.80
2018-07-07T22:37:10.101Z,56.10
2018-07-07T22:39:39.769Z,56.30
2018-07-07T22:42:09.491Z,57.10
2018-07-07T22:44:38.582Z,56.90
2018-07-07T22:49:35.074Z,57.20
2018-07-07T22:52:03.545Z,57.20
2018-07-07T22:54:31.927Z,57.40
2018-07-07T22:57:00.300Z,57.50
2018-07-07T22:59:28.680Z,57.70
2018-07-07T23:01:57.103Z,57.80
2018-07-07T23:04:25.474Z,57.80
2018-07-07T23:06:53.842Z,57.90
2018-07-07T23:09:22.265Z,57.90
2018-07-07T23:14:18.744Z,58.10
2018-07-07T23:16:47.101Z,58.10
2018-07-07T23:21:43.582Z,58.40
2018-07-07T23:24:12.041Z,58.40
2018-07-07T23:26:40.352Z,58.60
2018-07-07T23:29:08.764Z,58.90
2018-07-07T23:31:37.180Z,59.30
2018-07-07T23:34:05.684Z,59.50
2018-07-07T23:36:34.176Z,59.80
2018-07-07T23:39:02.557Z,59.80
2018-07-07T23:41:30.924Z,60.20
2018-07-07T23:44:00.567Z,60.30
2018-07-07T23:46:31.417Z,60.60
2018-07-07T23:49:02.115Z,60.50
2018-07-07T23:51:30.580Z,61.30
2018-07-07T23:53:58.972Z,60.50
2018-07-07T23:56:27.322Z,60.60
